createdAt,value
2023-01-31T00:00:20.941Z,4.50
2023-01-31T00:02:50.771Z,5.20
2023-01-31T00:05:20.868Z,5.10
2023-01-31T00:07:50.672Z,4.57
2023-01-31T00:10:20.685Z,4.40
2023-01-31T00:12:52.907Z,5.30
2023-01-31T00:15:22.684Z,5.30
2023-01-31T00:17:52.471Z,6.27
2023-01-31T00:20:22.292Z,5.20
2023-01-31T00:22:51.885Z,5.10
2023-01-31T00:25:21.882Z,5.90
2023-01-31T00:27:54.303Z,4.60
2023-01-31T00:30:24.161Z,5.70
2023-01-31T00:32:53.787Z,4.73
2023-01-31T00:35:23.364Z,5.27
2023-01-31T00:37:53.004Z,5.40
2023-01-31T00:40:22.727Z,5.50
2023-01-31T00:42:54.910Z,5.20
2023-01-31T00:45:24.567Z,5.70
2023-01-31T00:47:54.501Z,6.17
2023-01-31T00:50:24.207Z,5.40
2023-01-31T00:52:53.869Z,5.27
2023-01-31T00:55:23.496Z,5.47
2023-01-31T00:57:55.730Z,5.20
2023-01-31T01:00:26.991Z,4.90
2023-01-31T01:02:56.684Z,5.73
2023-01-31T01:05:26.674Z,6.03
2023-01-31T01:07:56.352Z,5.37
2023-01-31T01:10:26.777Z,6.53
2023-01-31T01:12:58.985Z,5.47
2023-01-31T01:15:28.642Z,6.50
2023-01-31T01:17:58.416Z,6.03
2023-01-31T01:20:28.099Z,4.87
2023-01-31T01:22:57.826Z,4.67
2023-01-31T01:25:27.531Z,5.50
2023-01-31T01:27:59.785Z,4.70
2023-01-31T01:30:30.063Z,5.30
2023-01-31T01:32:59.730Z,5.97
2023-01-31T01:35:29.368Z,4.70
2023-01-31T01:37:58.971Z,5.50
2023-01-31T01:40:38.071Z,5.97
2023-01-31T01:43:12.916Z,4.67
2023-01-31T01:45:42.564Z,4.77
2023-01-31T01:48:18.363Z,5.10
2023-01-31T01:50:51.952Z,4.37
2023-01-31T01:53:24.523Z,5.30
2023-01-31T01:55:57.201Z,5.60
2023-01-31T01:58:33.773Z,4.60
2023-01-31T02:01:04.257Z,4.63
2023-01-31T02:03:34.006Z,5.23
2023-01-31T02:06:07.536Z,5.53
2023-01-31T02:08:39.466Z,5.03
2023-01-31T02:11:16.996Z,4.40
2023-01-31T02:13:50.921Z,5.73
2023-01-31T02:16:21.108Z,4.60
2023-01-31T02:18:51.498Z,5.77
2023-01-31T02:22:07.629Z,5.07
2023-01-31T02:25:22.970Z,4.87
2023-01-31T02:28:19.568Z,5.17
2023-01-31T02:31:13.718Z,5.77
2023-01-31T02:33:55.519Z,4.90
2023-01-31T02:36:36.829Z,4.97
2023-01-31T02:39:17.665Z,4.90
2023-01-31T02:41:57.911Z,4.53
2023-01-31T02:44:44.535Z,4.50
2023-01-31T02:47:27.051Z,4.40
2023-01-31T02:50:04.630Z,5.00
2023-01-31T02:52:43.533Z,4.50
2023-01-31T02:55:32.367Z,5.93
2023-01-31T02:58:04.802Z,5.43
2023-01-31T03:00:36.947Z,5.07
2023-01-31T03:03:08.968Z,4.90
2023-01-31T03:05:42.820Z,4.80
2023-01-31T03:08:16.329Z,4.47
2023-01-31T03:11:02.985Z,4.60
2023-01-31T03:13:39.917Z,4.30
2023-01-31T03:16:35.745Z,4.70
2023-01-31T03:19:13.861Z,5.03
2023-01-31T03:21:53.172Z,5.10
2023-01-31T03:24:26.226Z,5.40
2023-01-31T03:26:58.475Z,5.30
2023-01-31T03:29:31.365Z,4.83
2023-01-31T03:32:06.206Z,5.10
2023-01-31T03:34:36.677Z,3.47
2023-01-31T03:37:15.602Z,4.77
2023-01-31T03:39:57.135Z,4.57
2023-01-31T03:42:34.399Z,4.50
2023-01-31T03:45:10.139Z,4.47
2023-01-31T03:47:42.385Z,4.03
2023-01-31T03:50:18.814Z,3.80
2023-01-31T03:52:57.686Z,4.73
2023-01-31T03:55:33.928Z,4.70
2023-01-31T03:58:08.831Z,4.20
2023-01-31T04:00:41.976Z,4.20
2023-01-31T04:03:16.935Z,4.30
2023-01-31T04:05:49.200Z,4.63
2023-01-31T04:08:21.938Z,4.63
2023-01-31T04:11:01.725Z,4.00
2023-01-31T04:13:31.440Z,4.87
2023-01-31T04:16:01.112Z,3.67
2023-01-31T04:18:30.842Z,3.87
2023-01-31T04:21:00.527Z,5.00
2023-01-31T04:23:33.368Z,4.67
2023-01-31T04:26:03.133Z,4.47
2023-01-31T04:28:33.142Z,6.10
2023-01-31T04:31:02.903Z,4.93
2023-01-31T04:33:33.079Z,4.13
2023-01-31T04:36:02.780Z,3.60
2023-01-31T04:38:35.224Z,6.43
2023-01-31T04:41:05.014Z,5.60
2023-01-31T04:43:34.671Z,5.73
2023-01-31T04:46:04.423Z,4.80
2023-01-31T04:48:34.104Z,4.37
2023-01-31T04:51:03.847Z,4.73
2023-01-31T04:53:36.356Z,5.20
2023-01-31T04:56:06.790Z,5.60
2023-01-31T04:58:36.811Z,4.20
2023-01-31T05:01:06.512Z,5.10
2023-01-31T05:03:36.489Z,5.47
2023-01-31T05:06:06.916Z,5.27
2023-01-31T05:08:39.149Z,5.90
2023-01-31T05:11:09.735Z,5.17
2023-01-31T05:13:40.897Z,5.20
2023-01-31T05:16:11.684Z,5.80
2023-01-31T05:18:41.823Z,7.03
2023-01-31T05:21:11.519Z,6.00
2023-01-31T05:23:43.772Z,6.23
2023-01-31T05:26:13.812Z,4.83
2023-01-31T05:28:43.475Z,5.33
2023-01-31T05:31:13.432Z,5.47
2023-01-31T05:33:43.176Z,6.83
2023-01-31T05:36:12.837Z,5.57
2023-01-31T05:38:45.458Z,5.27
2023-01-31T05:41:15.106Z,4.87
2023-01-31T05:43:44.724Z,5.37
2023-01-31T05:46:14.341Z,5.70
2023-01-31T05:48:43.939Z,4.50
2023-01-31T05:51:13.582Z,4.63
2023-01-31T05:53:45.830Z,5.20
2023-01-31T05:56:16.686Z,4.87
2023-01-31T05:58:50.436Z,4.57
2023-01-31T06:01:22.100Z,4.80
2023-01-31T06:03:52.811Z,4.50
2023-01-31T06:06:23.287Z,7.80
2023-01-31T06:08:55.491Z,5.23
2023-01-31T06:11:25.360Z,5.37
2023-01-31T06:13:57.745Z,6.20
2023-01-31T06:16:28.581Z,5.57
2023-01-31T06:18:58.316Z,5.57
2023-01-31T06:21:28.086Z,5.83
2023-01-31T06:24:00.344Z,6.80
2023-01-31T06:26:30.609Z,6.43
2023-01-31T06:29:00.825Z,5.97
2023-01-31T06:31:30.941Z,7.10
2023-01-31T06:34:00.612Z,7.83
2023-01-31T06:36:30.500Z,7.33
2023-01-31T06:39:04.144Z,6.87
2023-01-31T06:41:33.773Z,5.97
2023-01-31T06:44:03.505Z,6.63
2023-01-31T06:46:33.475Z,6.67
2023-01-31T06:49:03.180Z,7.17
2023-01-31T06:51:33.055Z,7.70
2023-01-31T06:54:05.377Z,6.80
2023-01-31T06:56:35.005Z,8.00
2023-01-31T06:59:04.820Z,6.60
2023-01-31T07:01:34.626Z,7.87
2023-01-31T07:04:04.478Z,7.17
2023-01-31T07:06:34.123Z,8.20
2023-01-31T07:09:07.440Z,7.63
2023-01-31T07:11:37.206Z,6.57
2023-01-31T07:14:06.874Z,8.30
2023-01-31T07:16:38.211Z,7.73
2023-01-31T07:19:08.176Z,8.13
2023-01-31T07:21:38.225Z,8.77
2023-01-31T07:24:11.438Z,8.30
2023-01-31T07:26:41.157Z,7.33
2023-01-31T07:29:12.139Z,8.37
2023-01-31T07:31:41.910Z,8.93
2023-01-31T07:34:11.536Z,7.37
2023-01-31T07:36:41.257Z,8.10
2023-01-31T07:39:13.743Z,8.40
2023-01-31T07:41:43.345Z,9.63
2023-01-31T07:44:13.263Z,9.07
2023-01-31T07:46:43.609Z,7.80
2023-01-31T07:49:14.300Z,9.30
2023-01-31T07:51:43.926Z,8.67
2023-01-31T07:54:16.257Z,8.63
2023-01-31T07:56:45.929Z,8.97
2023-01-31T07:59:17.266Z,9.90
2023-01-31T08:01:59.465Z,10.27
2023-01-31T08:04:29.468Z,8.93
2023-01-31T08:07:03.102Z,9.77
2023-01-31T08:09:35.517Z,10.93
2023-01-31T08:12:05.133Z,9.10
2023-01-31T08:14:34.782Z,9.77
2023-01-31T08:17:04.469Z,10.20
2023-01-31T08:19:34.420Z,10.70
2023-01-31T08:22:04.634Z,9.80
2023-01-31T08:24:36.883Z,10.27
2023-01-31T08:27:06.762Z,9.90
2023-01-31T08:29:36.495Z,7.10
2023-01-31T08:32:06.168Z,11.17
2023-01-31T08:34:35.820Z,11.17
2023-01-31T08:37:05.517Z,10.60
2023-01-31T08:39:37.754Z,9.80
2023-01-31T08:42:07.462Z,10.77
2023-01-31T08:44:38.322Z,11.40
2023-01-31T08:47:08.036Z,11.00
2023-01-31T08:49:39.222Z,11.20
2023-01-31T08:52:08.902Z,11.10
2023-01-31T08:54:41.325Z,10.80
2023-01-31T08:57:10.974Z,10.00
2023-01-31T08:59:40.668Z,12.10
2023-01-31T09:02:12.623Z,10.93
2023-01-31T09:04:42.389Z,11.03
2023-01-31T09:07:11.998Z,12.27
2023-01-31T09:09:44.159Z,12.20
2023-01-31T09:12:13.776Z,11.70
2023-01-31T09:14:43.428Z,12.30
2023-01-31T09:17:13.465Z,10.97
2023-01-31T09:19:46.000Z,11.13
2023-01-31T09:22:15.641Z,11.87
2023-01-31T09:24:48.173Z,12.23
2023-01-31T09:27:18.320Z,12.40
2023-01-31T09:29:47.976Z,12.30
2023-01-31T09:32:17.599Z,10.87
2023-01-31T09:34:49.070Z,11.90
2023-01-31T09:37:18.999Z,11.30
2023-01-31T09:39:51.284Z,10.57
2023-01-31T09:42:26.513Z,12.20
2023-01-31T09:45:02.984Z,11.40
2023-01-31T09:47:37.018Z,10.27
2023-01-31T09:50:11.108Z,10.80
2023-01-31T09:52:41.331Z,10.73
2023-01-31T09:55:19.122Z,9.97
2023-01-31T09:57:57.279Z,11.10
2023-01-31T10:00:34.221Z,9.50
2023-01-31T10:03:33.641Z,9.90
2023-01-31T10:06:08.723Z,10.13
2023-01-31T10:08:47.154Z,10.10
2023-01-31T10:11:24.780Z,10.67
2023-01-31T10:13:58.967Z,10.67
2023-01-31T10:16:36.526Z,9.70
2023-01-31T10:19:10.731Z,8.90
2023-01-31T10:21:45.069Z,9.33
2023-01-31T10:24:18.976Z,9.67
2023-01-31T10:26:54.017Z,9.57
2023-01-31T10:29:30.742Z,10.07
2023-01-31T10:32:05.247Z,10.23
2023-01-31T10:34:41.770Z,8.93
2023-01-31T10:37:17.242Z,8.23
2023-01-31T10:39:50.971Z,9.10
2023-01-31T10:42:32.699Z,9.13
2023-01-31T10:45:06.259Z,8.90
2023-01-31T10:47:38.339Z,9.07
2023-01-31T10:50:17.416Z,9.37
2023-01-31T10:52:57.924Z,8.97
2023-01-31T10:55:46.667Z,9.30
2023-01-31T10:58:22.636Z,10.40
2023-01-31T11:00:53.367Z,10.67
2023-01-31T11:03:23.305Z,10.27
2023-01-31T11:05:55.071Z,9.70
2023-01-31T11:08:32.522Z,10.23
2023-01-31T11:11:08.950Z,8.63
2023-01-31T11:13:41.884Z,10.27
2023-01-31T11:16:14.807Z,9.23
2023-01-31T11:18:48.949Z,11.53
2023-01-31T11:21:24.835Z,9.30
2023-01-31T11:23:58.282Z,10.53
2023-01-31T11:26:31.543Z,10.57
2023-01-31T11:29:04.877Z,10.30
2023-01-31T11:31:39.329Z,10.43
2023-01-31T11:34:23.168Z,11.13
2023-01-31T11:36:53.446Z,9.97
2023-01-31T11:39:31.790Z,8.33
2023-01-31T11:42:09.937Z,9.83
2023-01-31T11:44:59.887Z,10.27
2023-01-31T11:47:42.751Z,9.50
2023-01-31T11:50:24.043Z,9.47
2023-01-31T11:53:01.357Z,8.80
2023-01-31T11:55:39.307Z,9.20
2023-01-31T11:58:20.449Z,8.83
2023-01-31T12:00:59.521Z,9.10
2023-01-31T12:03:30.790Z,9.60
2023-01-31T12:06:05.277Z,9.73
2023-01-31T12:08:38.366Z,9.70
2023-01-31T12:11:09.833Z,10.03
2023-01-31T12:13:49.307Z,8.57
2023-01-31T12:16:25.627Z,8.80
2023-01-31T12:19:15.454Z,10.13
2023-01-31T12:22:02.915Z,9.97
2023-01-31T12:24:46.847Z,8.40
2023-01-31T12:27:28.863Z,9.30
2023-01-31T12:30:22.954Z,9.50
2023-01-31T12:33:32.235Z,10.00
2023-01-31T12:36:15.532Z,10.17
2023-01-31T12:39:00.134Z,10.97
2023-01-31T12:41:36.124Z,9.80
2023-01-31T12:44:44.842Z,11.60
2023-01-31T12:47:34.842Z,11.83
2023-01-31T12:50:28.811Z,11.20
2023-01-31T12:53:20.945Z,12.10
2023-01-31T12:56:01.770Z,13.97
2023-01-31T12:58:46.047Z,12.70
2023-01-31T13:01:20.880Z,13.20
2023-01-31T13:04:15.225Z,13.50
2023-01-31T13:06:53.605Z,14.63
2023-01-31T13:09:26.070Z,14.27
2023-01-31T13:12:02.024Z,14.63
2023-01-31T13:14:35.786Z,15.47
2023-01-31T13:17:08.763Z,13.50
2023-01-31T13:19:44.640Z,13.90
2023-01-31T13:22:23.250Z,14.03
2023-01-31T13:25:02.086Z,14.47
2023-01-31T13:27:38.115Z,14.13
2023-01-31T13:30:17.430Z,13.80
2023-01-31T13:32:51.362Z,22.80
2023-01-31T13:35:27.061Z,13.60
2023-01-31T13:38:03.394Z,13.43
2023-01-31T13:40:37.643Z,11.50
2023-01-31T13:43:15.949Z,12.03
2023-01-31T13:45:52.742Z,12.33
2023-01-31T13:48:29.152Z,11.30
2023-01-31T13:51:04.157Z,12.43
2023-01-31T13:53:39.593Z,11.43
2023-01-31T13:56:14.096Z,11.00
2023-01-31T13:58:46.163Z,12.83
2023-01-31T14:01:23.075Z,9.20
2023-01-31T14:04:25.328Z,10.30
2023-01-31T14:07:01.991Z,13.17
2023-01-31T14:09:37.419Z,8.80
2023-01-31T14:12:35.207Z,10.10
2023-01-31T14:15:13.037Z,7.60
2023-01-31T14:18:02.761Z,8.70
2023-01-31T14:20:33.712Z,8.40
2023-01-31T14:23:35.141Z,8.27
2023-01-31T14:26:38.820Z,8.67
2023-01-31T14:29:12.281Z,6.97
2023-01-31T14:31:43.048Z,7.73
2023-01-31T14:34:20.295Z,7.93
2023-01-31T14:37:03.836Z,7.00
2023-01-31T14:39:58.561Z,7.03
2023-01-31T14:42:53.604Z,6.87
2023-01-31T14:45:52.177Z,7.30
2023-01-31T14:48:38.485Z,7.93
2023-01-31T14:51:25.311Z,7.47
2023-01-31T14:54:15.749Z,7.37
2023-01-31T14:57:04.645Z,7.70
2023-01-31T14:59:41.273Z,7.90
2023-01-31T15:02:39.890Z,7.90
2023-01-31T15:05:15.264Z,8.57
2023-01-31T15:08:01.669Z,7.63
2023-01-31T15:10:56.585Z,7.67
2023-01-31T15:13:47.109Z,9.17
2023-01-31T15:16:28.527Z,9.20
2023-01-31T15:19:09.195Z,9.60
2023-01-31T15:21:44.739Z,9.27
2023-01-31T15:27:28.583Z,9.70
2023-01-31T15:30:06.822Z,9.37
2023-01-31T15:32:55.203Z,10.82
2023-01-31T15:35:30.568Z,9.87
2023-01-31T15:38:04.370Z,11.03
2023-01-31T15:40:34.282Z,10.20
2023-01-31T15:43:19.769Z,11.17
2023-01-31T15:45:52.492Z,10.43
2023-01-31T15:48:25.765Z,11.40
2023-01-31T15:50:57.688Z,10.63
2023-01-31T15:53:31.420Z,10.20
2023-01-31T15:56:05.305Z,11.17
2023-01-31T15:58:37.503Z,12.97
2023-01-31T16:01:08.108Z,9.80
2023-01-31T16:03:44.911Z,8.70
2023-01-31T16:06:25.503Z,9.47
2023-01-31T16:09:04.302Z,8.87
2023-01-31T16:11:36.368Z,9.43
2023-01-31T16:14:08.716Z,7.13
2023-01-31T16:16:39.327Z,5.87
2023-01-31T16:19:30.662Z,6.57
2023-01-31T16:22:01.182Z,5.50
2023-01-31T16:24:32.178Z,5.00
2023-01-31T16:27:04.108Z,5.07
2023-01-31T16:29:41.894Z,5.07
2023-01-31T16:32:20.291Z,4.20
2023-01-31T16:34:58.475Z,5.17
2023-01-31T16:37:38.165Z,4.97
2023-01-31T16:40:21.040Z,4.80
2023-01-31T16:42:50.872Z,4.23
2023-01-31T16:45:31.803Z,4.60
2023-01-31T16:48:21.968Z,4.30
2023-01-31T16:50:56.038Z,4.80
2023-01-31T16:53:31.712Z,5.23
2023-01-31T16:56:20.800Z,4.53
2023-01-31T16:58:53.984Z,4.97
2023-01-31T17:01:27.215Z,4.67
2023-01-31T17:04:09.045Z,4.13
2023-01-31T17:06:41.888Z,3.80
2023-01-31T17:09:17.047Z,3.57
2023-01-31T17:11:47.112Z,3.50
2023-01-31T17:14:16.834Z,3.80
2023-01-31T17:16:47.088Z,3.93
2023-01-31T17:19:16.739Z,3.27
2023-01-31T17:21:50.215Z,2.30
2023-01-31T17:24:22.675Z,2.53
2023-01-31T17:26:54.113Z,3.50
2023-01-31T17:29:26.026Z,5.27
2023-01-31T17:31:55.690Z,5.40
2023-01-31T17:34:25.351Z,4.70
2023-01-31T17:36:57.638Z,6.37
2023-01-31T17:39:27.256Z,5.60
2023-01-31T17:41:56.988Z,6.10
2023-01-31T17:44:26.611Z,8.17
2023-01-31T17:46:56.312Z,7.90
2023-01-31T17:49:25.983Z,8.23
2023-01-31T17:51:59.020Z,5.97
2023-01-31T17:54:29.274Z,10.50
2023-01-31T17:56:59.033Z,7.90
2023-01-31T17:59:28.755Z,9.80
2023-01-31T18:02:00.507Z,7.70
2023-01-31T18:04:30.224Z,6.60
2023-01-31T18:07:02.451Z,5.90
2023-01-31T18:09:32.081Z,7.90
2023-01-31T18:12:01.717Z,5.87
2023-01-31T18:14:31.341Z,9.13
2023-01-31T18:17:00.998Z,9.17
2023-01-31T18:19:30.601Z,8.13
2023-01-31T18:22:02.872Z,7.30
2023-01-31T18:24:33.908Z,5.83
2023-01-31T18:27:03.606Z,10.60
2023-01-31T18:29:33.267Z,7.63
2023-01-31T18:32:06.305Z,6.20
2023-01-31T18:34:36.814Z,7.00
2023-01-31T18:37:15.285Z,5.47
2023-01-31T18:39:44.910Z,4.80
2023-01-31T18:42:14.622Z,4.33
2023-01-31T18:44:44.992Z,4.50
2023-01-31T18:47:14.823Z,4.40
2023-01-31T18:49:45.112Z,4.97
2023-01-31T18:52:17.350Z,4.30
2023-01-31T18:54:49.129Z,5.70
2023-01-31T18:57:18.754Z,5.57
2023-01-31T18:59:48.407Z,3.40
2023-01-31T19:02:18.080Z,4.60
2023-01-31T19:04:47.810Z,4.50
2023-01-31T19:07:20.100Z,5.23
2023-01-31T19:09:49.720Z,5.63
2023-01-31T19:12:19.310Z,4.90
2023-01-31T19:14:48.906Z,5.00
2023-01-31T19:17:20.464Z,4.50
2023-01-31T19:19:50.113Z,4.23
2023-01-31T19:22:22.542Z,4.70
2023-01-31T19:24:52.257Z,5.33
2023-01-31T19:27:22.053Z,5.60
2023-01-31T19:29:51.931Z,4.27
2023-01-31T19:32:22.584Z,4.50
2023-01-31T19:34:54.054Z,5.20
2023-01-31T19:37:26.611Z,5.23
2023-01-31T19:39:56.413Z,4.10
2023-01-31T19:42:28.288Z,5.40
2023-01-31T19:44:58.004Z,5.00
2023-01-31T19:47:27.649Z,4.83
2023-01-31T19:49:57.297Z,5.23
2023-01-31T19:52:32.810Z,5.17
2023-01-31T19:55:02.422Z,4.67
2023-01-31T19:57:32.258Z,5.60
2023-01-31T20:00:01.916Z,4.37
2023-01-31T20:02:43.133Z,5.17
2023-01-31T20:05:14.696Z,4.90
2023-01-31T20:07:46.915Z,5.30
2023-01-31T20:10:16.635Z,5.17
2023-01-31T20:12:46.279Z,5.43
2023-01-31T20:15:15.947Z,5.40
2023-01-31T20:17:45.682Z,6.50
2023-01-31T20:20:15.298Z,5.70
2023-01-31T20:22:47.489Z,5.30
2023-01-31T20:25:17.237Z,5.30
2023-01-31T20:27:46.907Z,6.10
2023-01-31T20:30:19.123Z,4.37
2023-01-31T20:32:49.131Z,5.13
2023-01-31T20:35:19.358Z,4.70
2023-01-31T20:37:51.546Z,4.47
2023-01-31T20:40:21.657Z,5.37
2023-01-31T20:42:51.421Z,5.53
2023-01-31T20:45:21.203Z,5.50
2023-01-31T20:47:50.811Z,9.50
2023-01-31T20:50:20.851Z,6.03
2023-01-31T20:52:54.067Z,6.80
2023-01-31T20:55:24.619Z,7.90
2023-01-31T20:57:54.350Z,8.90
2023-01-31T21:00:24.918Z,6.97
2023-01-31T21:02:54.906Z,6.13
2023-01-31T21:05:24.829Z,7.63
2023-01-31T21:07:57.232Z,6.23
2023-01-31T21:10:28.820Z,6.83
2023-01-31T21:12:58.459Z,6.77
2023-01-31T21:15:28.952Z,6.30
2023-01-31T21:17:58.992Z,8.50
2023-01-31T21:20:28.613Z,6.53
2023-01-31T21:23:00.911Z,5.53
2023-01-31T21:25:31.466Z,5.17
2023-01-31T21:28:01.216Z,5.93
2023-01-31T21:30:31.137Z,7.23
2023-01-31T21:33:00.942Z,8.77
2023-01-31T21:35:30.786Z,6.93
2023-01-31T21:38:03.211Z,7.90
2023-01-31T21:40:32.961Z,6.10
2023-01-31T21:43:00.024Z,7.20
2023-01-31T21:45:42.050Z,5.83
2023-01-31T21:48:25.964Z,4.90
2023-01-31T21:50:55.629Z,4.63
2023-01-31T21:53:29.204Z,5.23
2023-01-31T21:56:03.935Z,4.40
2023-01-31T21:58:34.369Z,4.80
2023-01-31T22:01:08.495Z,5.27
2023-01-31T22:03:38.896Z,5.30
2023-01-31T22:06:10.639Z,4.47
2023-01-31T22:08:43.020Z,4.73
2023-01-31T22:11:14.069Z,5.10
2023-01-31T22:13:46.693Z,5.77
2023-01-31T22:16:17.682Z,5.60
2023-01-31T22:18:47.570Z,5.73
2023-01-31T22:21:19.603Z,5.10
2023-01-31T22:23:53.594Z,4.33
2023-01-31T22:26:25.947Z,4.30
2023-01-31T22:28:57.755Z,5.90
2023-01-31T22:31:28.048Z,5.60
2023-01-31T22:34:00.198Z,4.50
2023-01-31T22:36:30.287Z,5.50
2023-01-31T22:39:02.625Z,6.10
2023-01-31T22:41:32.300Z,4.93
2023-01-31T22:44:01.901Z,6.10
2023-01-31T22:46:32.138Z,4.60
2023-01-31T22:49:01.809Z,5.53
2023-01-31T22:51:31.981Z,5.53
2023-01-31T22:54:04.232Z,5.33
2023-01-31T22:56:34.652Z,5.33
2023-01-31T22:59:06.496Z,5.67
2023-01-31T23:01:38.237Z,5.87
2023-01-31T23:04:13.368Z,5.03
2023-01-31T23:06:42.981Z,4.93
2023-01-31T23:09:15.183Z,5.43
2023-01-31T23:11:44.790Z,5.50
2023-01-31T23:14:14.417Z,5.67
2023-01-31T23:16:56.562Z,5.30
2023-01-31T23:19:26.180Z,5.03
2023-01-31T23:21:55.771Z,5.17
2023-01-31T23:24:27.954Z,5.33
2023-01-31T23:26:57.760Z,5.43
2023-01-31T23:29:27.378Z,5.00
2023-01-31T23:31:57.030Z,5.73
2023-01-31T23:34:26.841Z,5.77
2023-01-31T23:36:56.614Z,6.27
2023-01-31T23:39:28.790Z,6.33
2023-01-31T23:41:58.381Z,4.67
2023-01-31T23:44:28.015Z,4.90
2023-01-31T23:46:57.996Z,6.23
2023-01-31T23:49:27.626Z,5.43
2023-01-31T23:51:57.510Z,5.67
2023-01-31T23:54:29.759Z,4.90
2023-01-31T23:56:59.364Z,4.50
2023-01-31T23:59:29.365Z,6.20
